Pedrinopolis, Brazil
Current Conditions -  °F | °C
As of 4:00 PM on Saturday 25 Oct 2014 (Local Time) from SBUR Reporting Station
Light Rain Light Rain  
Wind Chill: 68°   Ceiling: 1000
Heat Index: 68°   Visibility: 6mi
Dew Point: 66°   Wind: 12mph
Humidity: 94%   Direction: 190°S
Pressure: 30"   Gusts: NA
Location:  19.23°S, 47.46°W
Report Text: SBUR 251800Z 19010KT 9999 -RA SCT005 BKN010 OVC070 20/19 Q1016
Loading
Personal Weather Stations






























Interactive Weather Map
Tropical Storm Tracking
New forecast layout! Learn more

10-Day Weather Forecast

Advertisements
Track Severe Weather on mobile